sensor_id;sensor_type;location;lat;lon;timestamp;temperature;humidity
21811;DHT22;11067;48.788;9.208;2024-02-21T00:01:22;7.70;99.90
21811;DHT22;11067;48.788;9.208;2024-02-21T00:03:47;7.60;99.90
21811;DHT22;11067;48.788;9.208;2024-02-21T00:06:13;7.60;99.90
21811;DHT22;11067;48.788;9.208;2024-02-21T00:08:38;7.60;99.90
21811;DHT22;11067;48.788;9.208;2024-02-21T00:11:04;7.70;99.90
21811;DHT22;11067;48.788;9.208;2024-02-21T00:13:30;7.60;99.90
21811;DHT22;11067;48.788;9.208;2024-02-21T00:15:55;7.70;99.90
21811;DHT22;11067;48.788;9.208;2024-02-21T00:18:21;7.70;99.90
21811;DHT22;11067;48.788;9.208;2024-02-21T00:20:47;7.60;99.90
21811;DHT22;11067;48.788;9.208;2024-02-21T00:23:12;7.60;99.90
21811;DHT22;11067;48.788;9.208;2024-02-21T00:25:38;7.50;99.90
21811;DHT22;11067;48.788;9.208;2024-02-21T00:28:03;7.50;99.90
21811;DHT22;11067;48.788;9.208;2024-02-21T00:30:31;7.40;99.90
21811;DHT22;11067;48.788;9.208;2024-02-21T00:32:56;7.40;99.90
21811;DHT22;11067;48.788;9.208;2024-02-21T00:35:22;7.50;99.90
21811;DHT22;11067;48.788;9.208;2024-02-21T00:37:48;7.50;99.90
21811;DHT22;11067;48.788;9.208;2024-02-21T00:40:13;7.60;99.90
21811;DHT22;11067;48.788;9.208;2024-02-21T00:42:45;7.60;99.90
21811;DHT22;11067;48.788;9.208;2024-02-21T00:45:11;7.40;99.90
21811;DHT22;11067;48.788;9.208;2024-02-21T00:47:37;7.40;99.90
21811;DHT22;11067;48.788;9.208;2024-02-21T00:50:02;7.40;99.90
21811;DHT22;11067;48.788;9.208;2024-02-21T00:52:28;7.40;99.90
21811;DHT22;11067;48.788;9.208;2024-02-21T00:54:53;7.30;99.90
21811;DHT22;11067;48.788;9.208;2024-02-21T00:57:19;7.30;99.90
21811;DHT22;11067;48.788;9.208;2024-02-21T00:59:44;7.30;99.90
21811;DHT22;11067;48.788;9.208;2024-02-21T01:02:10;7.40;99.90
21811;DHT22;11067;48.788;9.208;2024-02-21T01:04:35;7.40;99.90
21811;DHT22;11067;48.788;9.208;2024-02-21T01:07:01;7.40;99.90
21811;DHT22;11067;48.788;9.208;2024-02-21T01:09:27;7.40;99.90
21811;DHT22;11067;48.788;9.208;2024-02-21T01:11:53;7.40;99.90
21811;DHT22;11067;48.788;9.208;2024-02-21T01:14:18;7.40;99.90
21811;DHT22;11067;48.788;9.208;2024-02-21T01:16:44;7.40;99.90
21811;DHT22;11067;48.788;9.208;2024-02-21T01:19:09;7.30;99.90
21811;DHT22;11067;48.788;9.208;2024-02-21T01:21:35;7.30;99.90
21811;DHT22;11067;48.788;9.208;2024-02-21T01:24:00;7.30;99.90
21811;DHT22;11067;48.788;9.208;2024-02-21T01:26:26;7.30;99.90
21811;DHT22;11067;48.788;9.208;2024-02-21T01:28:51;7.30;99.90
21811;DHT22;11067;48.788;9.208;2024-02-21T01:31:17;7.40;99.90
21811;DHT22;11067;48.788;9.208;2024-02-21T01:33:43;7.50;99.90
21811;DHT22;11067;48.788;9.208;2024-02-21T01:36:08;7.50;99.90
21811;DHT22;11067;48.788;9.208;2024-02-21T01:38:34;7.50;99.90
21811;DHT22;11067;48.788;9.208;2024-02-21T01:41:00;7.50;99.90
21811;DHT22;11067;48.788;9.208;2024-02-21T01:43:26;7.50;99.90
21811;DHT22;11067;48.788;9.208;2024-02-21T01:46:00;7.60;99.90
21811;DHT22;11067;48.788;9.208;2024-02-21T01:48:26;7.60;99.90
21811;DHT22;11067;48.788;9.208;2024-02-21T01:50:54;7.60;99.90
21811;DHT22;11067;48.788;9.208;2024-02-21T01:53:32;7.60;99.90
21811;DHT22;11067;48.788;9.208;2024-02-21T01:55:59;7.60;99.90
21811;DHT22;11067;48.788;9.208;2024-02-21T01:58:26;7.60;99.90
21811;DHT22;11067;48.788;9.208;2024-02-21T02:00:51;7.60;99.90
21811;DHT22;11067;48.788;9.208;2024-02-21T02:03:17;7.60;99.90
21811;DHT22;11067;48.788;9.208;2024-02-21T02:05:47;7.60;99.90
21811;DHT22;11067;48.788;9.208;2024-02-21T02:08:17;7.60;99.90
21811;DHT22;11067;48.788;9.208;2024-02-21T02:10:43;7.60;99.90
21811;DHT22;11067;48.788;9.208;2024-02-21T02:13:09;7.60;99.90
21811;DHT22;11067;48.788;9.208;2024-02-21T02:15:52;7.60;99.90
21811;DHT22;11067;48.788;9.208;2024-02-21T02:18:19;7.70;99.90
21811;DHT22;11067;48.788;9.208;2024-02-21T02:20:45;7.60;99.90
21811;DHT22;11067;48.788;9.208;2024-02-21T02:23:20;7.60;99.90
21811;DHT22;11067;48.788;9.208;2024-02-21T02:25:47;7.60;99.90
21811;DHT22;11067;48.788;9.208;2024-02-21T02:28:14;7.70;99.90
21811;DHT22;11067;48.788;9.208;2024-02-21T02:30:40;7.70;99.90
21811;DHT22;11067;48.788;9.208;2024-02-21T02:33:06;7.60;99.90
21811;DHT22;11067;48.788;9.208;2024-02-21T02:35:32;7.60;99.90
21811;DHT22;11067;48.788;9.208;2024-02-21T02:37:57;7.70;99.90
21811;DHT22;11067;48.788;9.208;2024-02-21T02:40:23;7.70;99.90
21811;DHT22;11067;48.788;9.208;2024-02-21T02:42:50;7.70;99.90
21811;DHT22;11067;48.788;9.208;2024-02-21T02:45:17;7.70;99.90
21811;DHT22;11067;48.788;9.208;2024-02-21T02:47:44;7.70;99.90
21811;DHT22;11067;48.788;9.208;2024-02-21T02:50:11;7.80;99.90
21811;DHT22;11067;48.788;9.208;2024-02-21T02:52:36;7.80;99.90
21811;DHT22;11067;48.788;9.208;2024-02-21T02:55:02;7.80;99.90
21811;DHT22;11067;48.788;9.208;2024-02-21T02:57:28;7.80;99.90
21811;DHT22;11067;48.788;9.208;2024-02-21T02:59:54;7.90;99.90
21811;DHT22;11067;48.788;9.208;2024-02-21T03:02:19;7.90;99.90
21811;DHT22;11067;48.788;9.208;2024-02-21T03:04:45;7.90;99.90
21811;DHT22;11067;48.788;9.208;2024-02-21T03:07:11;8.00;99.90
21811;DHT22;11067;48.788;9.208;2024-02-21T03:09:37;8.00;99.90
21811;DHT22;11067;48.788;9.208;2024-02-21T03:12:04;8.00;99.90
21811;DHT22;11067;48.788;9.208;2024-02-21T03:14:30;8.00;99.90
21811;DHT22;11067;48.788;9.208;2024-02-21T03:16:56;7.90;99.90
21811;DHT22;11067;48.788;9.208;2024-02-21T03:19:22;7.80;99.90
21811;DHT22;11067;48.788;9.208;2024-02-21T03:21:48;7.80;99.90
21811;DHT22;11067;48.788;9.208;2024-02-21T03:24:15;7.90;99.90
21811;DHT22;11067;48.788;9.208;2024-02-21T03:26:41;7.90;99.90
21811;DHT22;11067;48.788;9.208;2024-02-21T03:29:06;7.80;99.90
21811;DHT22;11067;48.788;9.208;2024-02-21T03:31:32;7.80;99.90
21811;DHT22;11067;48.788;9.208;2024-02-21T03:33:57;7.70;99.90
21811;DHT22;11067;48.788;9.208;2024-02-21T03:36:23;7.70;99.90
21811;DHT22;11067;48.788;9.208;2024-02-21T03:38:57;7.80;99.90
21811;DHT22;11067;48.788;9.208;2024-02-21T03:41:22;7.70;99.90
21811;DHT22;11067;48.788;9.208;2024-02-21T03:43:48;7.70;99.90
21811;DHT22;11067;48.788;9.208;2024-02-21T03:46:14;7.70;99.90
21811;DHT22;11067;48.788;9.208;2024-02-21T03:48:39;7.60;99.90
21811;DHT22;11067;48.788;9.208;2024-02-21T03:51:05;7.60;99.90
21811;DHT22;11067;48.788;9.208;2024-02-21T03:53:30;7.60;99.90
21811;DHT22;11067;48.788;9.208;2024-02-21T03:59:18;7.60;99.90
21811;DHT22;11067;48.788;9.208;2024-02-21T04:01:43;7.50;99.90
21811;DHT22;11067;48.788;9.208;2024-02-21T04:04:10;7.50;99.90
21811;DHT22;11067;48.788;9.208;2024-02-21T04:06:35;7.50;99.90
21811;DHT22;11067;48.788;9.208;2024-02-21T04:09:02;7.50;99.90
21811;DHT22;11067;48.788;9.208;2024-02-21T04:11:27;7.50;99.90
21811;DHT22;11067;48.788;9.208;2024-02-21T04:13:53;7.50;99.90
21811;DHT22;11067;48.788;9.208;2024-02-21T04:16:18;7.50;99.90
21811;DHT22;11067;48.788;9.208;2024-02-21T04:18:44;7.30;99.90
21811;DHT22;11067;48.788;9.208;2024-02-21T04:21:14;7.30;99.90
21811;DHT22;11067;48.788;9.208;2024-02-21T04:23:40;7.30;99.90
21811;DHT22;11067;48.788;9.208;2024-02-21T04:26:06;7.20;99.90
21811;DHT22;11067;48.788;9.208;2024-02-21T04:28:31;7.10;99.90
21811;DHT22;11067;48.788;9.208;2024-02-21T04:30:57;7.10;99.90
21811;DHT22;11067;48.788;9.208;2024-02-21T04:33:23;7.10;99.90
21811;DHT22;11067;48.788;9.208;2024-02-21T04:35:48;7.20;99.90
21811;DHT22;11067;48.788;9.208;2024-02-21T04:38:14;7.30;99.90
21811;DHT22;11067;48.788;9.208;2024-02-21T04:40:40;7.20;99.90
21811;DHT22;11067;48.788;9.208;2024-02-21T04:43:05;7.20;99.90
21811;DHT22;11067;48.788;9.208;2024-02-21T04:45:31;7.20;99.90
21811;DHT22;11067;48.788;9.208;2024-02-21T04:47:56;7.20;99.90
21811;DHT22;11067;48.788;9.208;2024-02-21T04:50:22;7.20;99.90
21811;DHT22;11067;48.788;9.208;2024-02-21T04:52:47;7.30;99.90
21811;DHT22;11067;48.788;9.208;2024-02-21T04:55:13;7.30;99.90
21811;DHT22;11067;48.788;9.208;2024-02-21T04:57:38;7.20;99.90
21811;DHT22;11067;48.788;9.208;2024-02-21T05:00:05;7.20;99.90
21811;DHT22;11067;48.788;9.208;2024-02-21T05:02:31;7.10;99.90
21811;DHT22;11067;48.788;9.208;2024-02-21T05:04:57;7.10;99.90
21811;DHT22;11067;48.788;9.208;2024-02-21T05:07:22;7.00;99.90
21811;DHT22;11067;48.788;9.208;2024-02-21T05:09:48;7.00;99.90
21811;DHT22;11067;48.788;9.208;2024-02-21T05:12:14;7.00;99.90
21811;DHT22;11067;48.788;9.208;2024-02-21T05:14:39;7.00;99.90
21811;DHT22;11067;48.788;9.208;2024-02-21T05:17:05;7.00;99.90
21811;DHT22;11067;48.788;9.208;2024-02-21T05:19:30;7.00;99.90
21811;DHT22;11067;48.788;9.208;2024-02-21T05:21:56;7.00;99.90
21811;DHT22;11067;48.788;9.208;2024-02-21T05:24:21;7.00;99.90
21811;DHT22;11067;48.788;9.208;2024-02-21T05:26:47;7.00;99.90
21811;DHT22;11067;48.788;9.208;2024-02-21T05:29:12;7.00;99.90
21811;DHT22;11067;48.788;9.208;2024-02-21T05:34:19;6.80;99.90
21811;DHT22;11067;48.788;9.208;2024-02-21T05:36:44;6.70;99.90
21811;DHT22;11067;48.788;9.208;2024-02-21T05:39:11;6.70;99.90
21811;DHT22;11067;48.788;9.208;2024-02-21T05:41:36;6.70;99.90
21811;DHT22;11067;48.788;9.208;2024-02-21T05:44:02;6.60;99.90
21811;DHT22;11067;48.788;9.208;2024-02-21T05:46:28;6.60;99.90
21811;DHT22;11067;48.788;9.208;2024-02-21T05:48:54;6.60;99.90
21811;DHT22;11067;48.788;9.208;2024-02-21T05:51:19;6.60;99.90
21811;DHT22;11067;48.788;9.208;2024-02-21T05:53:45;6.60;99.90
21811;DHT22;11067;48.788;9.208;2024-02-21T05:56:11;6.60;99.90
21811;DHT22;11067;48.788;9.208;2024-02-21T05:58:37;6.60;99.90
21811;DHT22;11067;48.788;9.208;2024-02-21T06:01:03;6.50;99.90
21811;DHT22;11067;48.788;9.208;2024-02-21T06:03:29;6.50;99.90
21811;DHT22;11067;48.788;9.208;2024-02-21T06:05:55;6.60;99.90
21811;DHT22;11067;48.788;9.208;2024-02-21T06:08:20;6.60;99.90
21811;DHT22;11067;48.788;9.208;2024-02-21T06:10:46;6.70;99.90
21811;DHT22;11067;48.788;9.208;2024-02-21T06:13:12;6.70;99.90
21811;DHT22;11067;48.788;9.208;2024-02-21T06:15:38;6.70;99.90
21811;DHT22;11067;48.788;9.208;2024-02-21T06:18:04;6.80;99.90
21811;DHT22;11067;48.788;9.208;2024-02-21T06:20:29;6.80;99.90
21811;DHT22;11067;48.788;9.208;2024-02-21T06:22:55;6.80;99.90
21811;DHT22;11067;48.788;9.208;2024-02-21T06:25:20;6.90;99.90
21811;DHT22;11067;48.788;9.208;2024-02-21T06:27:46;6.90;99.90
21811;DHT22;11067;48.788;9.208;2024-02-21T06:30:12;6.90;99.90
21811;DHT22;11067;48.788;9.208;2024-02-21T06:32:37;6.90;99.90
21811;DHT22;11067;48.788;9.208;2024-02-21T06:35:04;6.80;99.90
21811;DHT22;11067;48.788;9.208;2024-02-21T06:37:30;6.80;99.90
21811;DHT22;11067;48.788;9.208;2024-02-21T06:39:55;6.80;99.90
21811;DHT22;11067;48.788;9.208;2024-02-21T06:42:21;6.90;99.90
21811;DHT22;11067;48.788;9.208;2024-02-21T06:44:47;6.90;99.90
21811;DHT22;11067;48.788;9.208;2024-02-21T06:47:12;6.90;99.90
21811;DHT22;11067;48.788;9.208;2024-02-21T06:49:38;6.90;99.90
21811;DHT22;11067;48.788;9.208;2024-02-21T06:52:06;7.00;99.90
21811;DHT22;11067;48.788;9.208;2024-02-21T06:54:32;7.00;99.90
21811;DHT22;11067;48.788;9.208;2024-02-21T06:56:57;7.10;99.90
21811;DHT22;11067;48.788;9.208;2024-02-21T06:59:23;7.10;99.90
21811;DHT22;11067;48.788;9.208;2024-02-21T07:01:49;7.20;99.90
21811;DHT22;11067;48.788;9.208;2024-02-21T07:04:15;7.20;99.90
21811;DHT22;11067;48.788;9.208;2024-02-21T07:06:41;7.30;99.90
21811;DHT22;11067;48.788;9.208;2024-02-21T07:09:06;7.50;99.90
21811;DHT22;11067;48.788;9.208;2024-02-21T07:11:32;7.50;99.90
21811;DHT22;11067;48.788;9.208;2024-02-21T07:13:57;7.50;99.90
21811;DHT22;11067;48.788;9.208;2024-02-21T07:16:23;7.50;99.90
21811;DHT22;11067;48.788;9.208;2024-02-21T07:18:48;7.50;99.90
21811;DHT22;11067;48.788;9.208;2024-02-21T07:21:14;7.50;99.90
21811;DHT22;11067;48.788;9.208;2024-02-21T07:23:41;7.60;99.90
21811;DHT22;11067;48.788;9.208;2024-02-21T07:26:07;7.60;99.90
21811;DHT22;11067;48.788;9.208;2024-02-21T07:28:33;7.60;99.90
21811;DHT22;11067;48.788;9.208;2024-02-21T07:31:01;7.70;99.90
21811;DHT22;11067;48.788;9.208;2024-02-21T07:33:27;7.80;99.90
21811;DHT22;11067;48.788;9.208;2024-02-21T07:35:52;8.00;99.90
21811;DHT22;11067;48.788;9.208;2024-02-21T07:38:18;8.20;98.70
21811;DHT22;11067;48.788;9.208;2024-02-21T07:40:46;8.30;95.30
21811;DHT22;11067;48.788;9.208;2024-02-21T07:43:12;8.40;94.10
21811;DHT22;11067;48.788;9.208;2024-02-21T07:45:37;8.50;91.60
21811;DHT22;11067;48.788;9.208;2024-02-21T07:48:07;8.40;86.70
21811;DHT22;11067;48.788;9.208;2024-02-21T07:50:33;8.50;88.70
21811;DHT22;11067;48.788;9.208;2024-02-21T07:52:58;8.60;87.60
21811;DHT22;11067;48.788;9.208;2024-02-21T07:55:24;8.70;80.70
21811;DHT22;11067;48.788;9.208;2024-02-21T07:57:49;8.80;76.50
21811;DHT22;11067;48.788;9.208;2024-02-21T08:00:15;8.90;74.00
21811;DHT22;11067;48.788;9.208;2024-02-21T08:02:45;8.90;71.10
21811;DHT22;11067;48.788;9.208;2024-02-21T08:05:11;9.10;69.50
21811;DHT22;11067;48.788;9.208;2024-02-21T08:07:37;9.10;61.50
21811;DHT22;11067;48.788;9.208;2024-02-21T08:10:04;9.00;60.10
21811;DHT22;11067;48.788;9.208;2024-02-21T08:12:29;9.00;62.40
21811;DHT22;11067;48.788;9.208;2024-02-21T08:14:55;9.00;65.40
21811;DHT22;11067;48.788;9.208;2024-02-21T08:17:20;9.10;63.70
21811;DHT22;11067;48.788;9.208;2024-02-21T08:19:46;9.10;62.50
21811;DHT22;11067;48.788;9.208;2024-02-21T08:22:13;9.20;63.80
21811;DHT22;11067;48.788;9.208;2024-02-21T08:24:39;9.30;64.20
21811;DHT22;11067;48.788;9.208;2024-02-21T08:27:04;9.40;64.20
21811;DHT22;11067;48.788;9.208;2024-02-21T08:29:30;9.30;62.80
21811;DHT22;11067;48.788;9.208;2024-02-21T08:31:56;9.40;62.70
21811;DHT22;11067;48.788;9.208;2024-02-21T08:34:21;9.40;61.70
21811;DHT22;11067;48.788;9.208;2024-02-21T08:36:47;9.60;60.10
21811;DHT22;11067;48.788;9.208;2024-02-21T08:39:12;9.60;59.40
21811;DHT22;11067;48.788;9.208;2024-02-21T08:41:42;9.50;61.00
21811;DHT22;11067;48.788;9.208;2024-02-21T08:44:07;9.50;60.50
21811;DHT22;11067;48.788;9.208;2024-02-21T08:46:33;9.60;59.20
21811;DHT22;11067;48.788;9.208;2024-02-21T08:48:58;9.70;58.00
21811;DHT22;11067;48.788;9.208;2024-02-21T08:51:24;9.60;57.60
21811;DHT22;11067;48.788;9.208;2024-02-21T08:53:49;9.60;55.00
21811;DHT22;11067;48.788;9.208;2024-02-21T08:56:15;9.70;54.40
21811;DHT22;11067;48.788;9.208;2024-02-21T08:58:41;9.70;51.70
21811;DHT22;11067;48.788;9.208;2024-02-21T09:01:07;9.70;54.80
21811;DHT22;11067;48.788;9.208;2024-02-21T09:03:36;9.80;51.20
21811;DHT22;11067;48.788;9.208;2024-02-21T09:06:03;9.80;49.50
21811;DHT22;11067;48.788;9.208;2024-02-21T09:08:29;10.10;51.60
21811;DHT22;11067;48.788;9.208;2024-02-21T09:10:55;10.30;47.90
21811;DHT22;11067;48.788;9.208;2024-02-21T09:13:20;10.20;40.30
21811;DHT22;11067;48.788;9.208;2024-02-21T09:15:47;10.20;42.00
21811;DHT22;11067;48.788;9.208;2024-02-21T09:18:13;10.20;42.00
21811;DHT22;11067;48.788;9.208;2024-02-21T09:20:39;10.30;39.80
21811;DHT22;11067;48.788;9.208;2024-02-21T09:23:04;10.40;37.30
21811;DHT22;11067;48.788;9.208;2024-02-21T09:25:29;10.30;38.00
21811;DHT22;11067;48.788;9.208;2024-02-21T09:27:57;10.50;35.10
21811;DHT22;11067;48.788;9.208;2024-02-21T09:30:23;10.20;35.00
21811;DHT22;11067;48.788;9.208;2024-02-21T09:32:49;10.20;37.10
21811;DHT22;11067;48.788;9.208;2024-02-21T09:35:15;10.40;36.40
21811;DHT22;11067;48.788;9.208;2024-02-21T09:37:41;10.40;34.90
21811;DHT22;11067;48.788;9.208;2024-02-21T09:40:07;10.40;33.40
21811;DHT22;11067;48.788;9.208;2024-02-21T09:42:40;10.40;32.50
21811;DHT22;11067;48.788;9.208;2024-02-21T09:45:32;10.50;29.60
21811;DHT22;11067;48.788;9.208;2024-02-21T09:48:25;10.60;30.30
21811;DHT22;11067;48.788;9.208;2024-02-21T09:50:56;10.80;26.50
21811;DHT22;11067;48.788;9.208;2024-02-21T09:53:24;10.80;28.20
21811;DHT22;11067;48.788;9.208;2024-02-21T09:55:50;10.90;22.50
21811;DHT22;11067;48.788;9.208;2024-02-21T09:58:16;10.80;22.70
21811;DHT22;11067;48.788;9.208;2024-02-21T10:00:42;10.90;19.90
21811;DHT22;11067;48.788;9.208;2024-02-21T10:03:07;10.70;19.30
21811;DHT22;11067;48.788;9.208;2024-02-21T10:05:37;10.90;18.80
21811;DHT22;11067;48.788;9.208;2024-02-21T10:08:06;10.80;17.90
21811;DHT22;11067;48.788;9.208;2024-02-21T10:10:45;11.00;18.60
21811;DHT22;11067;48.788;9.208;2024-02-21T10:13:23;11.30;15.70
21811;DHT22;11067;48.788;9.208;2024-02-21T10:15:59;11.30;14.40
21811;DHT22;11067;48.788;9.208;2024-02-21T10:18:25;11.70;13.20
21811;DHT22;11067;48.788;9.208;2024-02-21T10:21:03;11.40;8.00
21811;DHT22;11067;48.788;9.208;2024-02-21T10:23:29;11.60;9.60
21811;DHT22;11067;48.788;9.208;2024-02-21T10:26:04;11.70;9.80
21811;DHT22;11067;48.788;9.208;2024-02-21T10:28:30;12.00;6.90
21811;DHT22;11067;48.788;9.208;2024-02-21T10:30:56;11.70;4.70
21811;DHT22;11067;48.788;9.208;2024-02-21T10:33:21;11.80;6.10
21811;DHT22;11067;48.788;9.208;2024-02-21T10:35:49;11.90;4.50
21811;DHT22;11067;48.788;9.208;2024-02-21T10:38:15;11.60;5.10
21811;DHT22;11067;48.788;9.208;2024-02-21T10:40:41;11.80;4.90
21811;DHT22;11067;48.788;9.208;2024-02-21T10:43:12;12.00;3.90
21811;DHT22;11067;48.788;9.208;2024-02-21T10:45:39;12.20;1.80
21811;DHT22;11067;48.788;9.208;2024-02-21T10:48:12;12.00;1.00
21811;DHT22;11067;48.788;9.208;2024-02-21T10:51:00;12.30;1.50
21811;DHT22;11067;48.788;9.208;2024-02-21T10:56:33;12.50;1.00
21811;DHT22;11067;48.788;9.208;2024-02-21T10:59:04;12.70;1.00
21811;DHT22;11067;48.788;9.208;2024-02-21T11:01:30;12.60;1.00
21811;DHT22;11067;48.788;9.208;2024-02-21T11:04:06;12.50;1.00
21811;DHT22;11067;48.788;9.208;2024-02-21T11:06:32;12.70;1.00
21811;DHT22;11067;48.788;9.208;2024-02-21T11:09:09;12.60;1.00
21811;DHT22;11067;48.788;9.208;2024-02-21T11:11:37;12.50;1.00
21811;DHT22;11067;48.788;9.208;2024-02-21T11:16:39;12.60;1.00
21811;DHT22;11067;48.788;9.208;2024-02-21T11:19:29;12.50;1.00
21811;DHT22;11067;48.788;9.208;2024-02-21T11:21:55;12.70;1.00
21811;DHT22;11067;48.788;9.208;2024-02-21T11:24:32;12.90;1.00
21811;DHT22;11067;48.788;9.208;2024-02-21T11:29:44;12.90;1.00
21811;DHT22;11067;48.788;9.208;2024-02-21T11:32:10;12.60;1.00
21811;DHT22;11067;48.788;9.208;2024-02-21T11:34:37;12.90;1.00
21811;DHT22;11067;48.788;9.208;2024-02-21T11:37:13;12.90;1.00
21811;DHT22;11067;48.788;9.208;2024-02-21T11:39:41;13.10;1.00
21811;DHT22;11067;48.788;9.208;2024-02-21T11:42:07;13.20;1.00
21811;DHT22;11067;48.788;9.208;2024-02-21T11:44:35;13.10;1.00
21811;DHT22;11067;48.788;9.208;2024-02-21T11:47:03;13.10;1.00
21811;DHT22;11067;48.788;9.208;2024-02-21T11:49:29;13.10;1.00
21811;DHT22;11067;48.788;9.208;2024-02-21T11:52:01;13.40;1.00
21811;DHT22;11067;48.788;9.208;2024-02-21T11:54:29;13.30;1.00
21811;DHT22;11067;48.788;9.208;2024-02-21T11:56:55;13.40;1.00
21811;DHT22;11067;48.788;9.208;2024-02-21T11:59:21;13.50;1.00
21811;DHT22;11067;48.788;9.208;2024-02-21T12:01:47;13.60;1.00
21811;DHT22;11067;48.788;9.208;2024-02-21T12:04:13;13.60;1.00
21811;DHT22;11067;48.788;9.208;2024-02-21T12:06:39;13.70;1.00
21811;DHT22;11067;48.788;9.208;2024-02-21T12:09:07;13.80;1.00
21811;DHT22;11067;48.788;9.208;2024-02-21T12:11:34;13.90;1.00
21811;DHT22;11067;48.788;9.208;2024-02-21T12:14:03;13.80;1.00
21811;DHT22;11067;48.788;9.208;2024-02-21T12:16:33;13.60;1.00
21811;DHT22;11067;48.788;9.208;2024-02-21T12:19:01;13.50;1.00
21811;DHT22;11067;48.788;9.208;2024-02-21T12:21:33;13.50;1.00
21811;DHT22;11067;48.788;9.208;2024-02-21T12:24:21;13.70;1.00
21811;DHT22;11067;48.788;9.208;2024-02-21T12:26:47;13.60;1.00
21811;DHT22;11067;48.788;9.208;2024-02-21T12:29:12;13.80;1.00
21811;DHT22;11067;48.788;9.208;2024-02-21T12:31:38;13.90;1.00
21811;DHT22;11067;48.788;9.208;2024-02-21T12:34:05;13.60;1.00
21811;DHT22;11067;48.788;9.208;2024-02-21T12:36:33;13.80;1.00
21811;DHT22;11067;48.788;9.208;2024-02-21T12:38:59;14.00;1.00
21811;DHT22;11067;48.788;9.208;2024-02-21T12:41:27;14.00;1.00
21811;DHT22;11067;48.788;9.208;2024-02-21T12:43:53;14.10;1.00
21811;DHT22;11067;48.788;9.208;2024-02-21T12:46:18;14.20;1.00
21811;DHT22;11067;48.788;9.208;2024-02-21T12:48:44;14.30;1.00
21811;DHT22;11067;48.788;9.208;2024-02-21T12:51:10;14.10;1.00
21811;DHT22;11067;48.788;9.208;2024-02-21T12:53:35;14.20;1.00
21811;DHT22;11067;48.788;9.208;2024-02-21T12:56:01;14.00;1.00
21811;DHT22;11067;48.788;9.208;2024-02-21T12:58:26;14.20;1.00
21811;DHT22;11067;48.788;9.208;2024-02-21T13:00:52;14.30;1.00
21811;DHT22;11067;48.788;9.208;2024-02-21T13:03:18;14.30;1.00
21811;DHT22;11067;48.788;9.208;2024-02-21T13:05:44;14.50;1.00
21811;DHT22;11067;48.788;9.208;2024-02-21T13:08:09;14.30;1.00
21811;DHT22;11067;48.788;9.208;2024-02-21T13:10:35;14.30;1.00
21811;DHT22;11067;48.788;9.208;2024-02-21T13:13:03;14.00;1.00
21811;DHT22;11067;48.788;9.208;2024-02-21T13:15:29;14.00;1.00
21811;DHT22;11067;48.788;9.208;2024-02-21T13:17:56;14.10;1.00
21811;DHT22;11067;48.788;9.208;2024-02-21T13:20:23;13.90;1.00
21811;DHT22;11067;48.788;9.208;2024-02-21T13:22:49;14.20;1.00
21811;DHT22;11067;48.788;9.208;2024-02-21T13:25:14;14.20;1.00
21811;DHT22;11067;48.788;9.208;2024-02-21T13:27:43;14.10;1.00
21811;DHT22;11067;48.788;9.208;2024-02-21T13:30:10;14.10;1.00
21811;DHT22;11067;48.788;9.208;2024-02-21T13:32:35;14.20;1.00
21811;DHT22;11067;48.788;9.208;2024-02-21T13:35:01;14.20;1.00
21811;DHT22;11067;48.788;9.208;2024-02-21T13:37:27;14.20;1.00
21811;DHT22;11067;48.788;9.208;2024-02-21T13:39:53;14.30;1.00
21811;DHT22;11067;48.788;9.208;2024-02-21T13:42:19;14.40;1.00
21811;DHT22;11067;48.788;9.208;2024-02-21T13:44:45;14.40;1.00
21811;DHT22;11067;48.788;9.208;2024-02-21T13:47:13;14.20;1.00
21811;DHT22;11067;48.788;9.208;2024-02-21T13:49:39;14.30;1.00
21811;DHT22;11067;48.788;9.208;2024-02-21T13:52:05;14.40;1.00
21811;DHT22;11067;48.788;9.208;2024-02-21T13:54:30;14.20;1.00
21811;DHT22;11067;48.788;9.208;2024-02-21T13:56:56;14.30;1.00
21811;DHT22;11067;48.788;9.208;2024-02-21T13:59:21;14.30;1.00
21811;DHT22;11067;48.788;9.208;2024-02-21T14:01:47;14.00;1.00
21811;DHT22;11067;48.788;9.208;2024-02-21T14:04:12;14.10;1.00
21811;DHT22;11067;48.788;9.208;2024-02-21T14:06:38;13.90;1.00
21811;DHT22;11067;48.788;9.208;2024-02-21T14:09:09;14.00;1.00
21811;DHT22;11067;48.788;9.208;2024-02-21T14:11:34;14.00;1.00
21811;DHT22;11067;48.788;9.208;2024-02-21T14:14:00;14.10;1.00
21811;DHT22;11067;48.788;9.208;2024-02-21T14:16:26;14.00;1.00
21811;DHT22;11067;48.788;9.208;2024-02-21T14:18:51;14.20;1.00
21811;DHT22;11067;48.788;9.208;2024-02-21T14:21:17;14.30;1.00
21811;DHT22;11067;48.788;9.208;2024-02-21T14:23:42;14.40;1.00
21811;DHT22;11067;48.788;9.208;2024-02-21T14:26:08;14.30;1.00
21811;DHT22;11067;48.788;9.208;2024-02-21T14:28:34;14.40;1.00
21811;DHT22;11067;48.788;9.208;2024-02-21T14:31:00;14.40;1.00
21811;DHT22;11067;48.788;9.208;2024-02-21T14:33:29;14.30;1.00
21811;DHT22;11067;48.788;9.208;2024-02-21T14:35:56;14.20;1.00
21811;DHT22;11067;48.788;9.208;2024-02-21T14:38:21;14.30;1.00
21811;DHT22;11067;48.788;9.208;2024-02-21T14:40:47;14.20;1.00
21811;DHT22;11067;48.788;9.208;2024-02-21T14:43:12;14.40;1.00
21811;DHT22;11067;48.788;9.208;2024-02-21T14:45:38;14.30;1.00
21811;DHT22;11067;48.788;9.208;2024-02-21T14:48:05;14.30;1.00
21811;DHT22;11067;48.788;9.208;2024-02-21T14:50:31;14.30;1.00
21811;DHT22;11067;48.788;9.208;2024-02-21T14:52:56;14.50;1.00
21811;DHT22;11067;48.788;9.208;2024-02-21T14:55:22;14.40;1.00
21811;DHT22;11067;48.788;9.208;2024-02-21T14:57:49;14.40;1.00
21811;DHT22;11067;48.788;9.208;2024-02-21T15:00:15;14.40;1.00
21811;DHT22;11067;48.788;9.208;2024-02-21T15:02:40;14.40;1.00
21811;DHT22;11067;48.788;9.208;2024-02-21T15:05:06;14.40;1.00
21811;DHT22;11067;48.788;9.208;2024-02-21T15:07:32;14.30;1.00
21811;DHT22;11067;48.788;9.208;2024-02-21T15:09:58;14.30;1.00
21811;DHT22;11067;48.788;9.208;2024-02-21T15:12:24;14.20;1.00
21811;DHT22;11067;48.788;9.208;2024-02-21T15:14:50;14.20;1.00
21811;DHT22;11067;48.788;9.208;2024-02-21T15:17:17;14.10;1.00
21811;DHT22;11067;48.788;9.208;2024-02-21T15:19:43;14.20;1.00
21811;DHT22;11067;48.788;9.208;2024-02-21T15:22:10;14.20;1.00
21811;DHT22;11067;48.788;9.208;2024-02-21T15:24:40;14.20;1.00
21811;DHT22;11067;48.788;9.208;2024-02-21T15:27:06;14.10;1.00
21811;DHT22;11067;48.788;9.208;2024-02-21T15:29:31;14.10;1.00
21811;DHT22;11067;48.788;9.208;2024-02-21T15:31:57;14.00;1.00
21811;DHT22;11067;48.788;9.208;2024-02-21T15:34:23;14.00;1.00
21811;DHT22;11067;48.788;9.208;2024-02-21T15:36:48;13.80;1.00
21811;DHT22;11067;48.788;9.208;2024-02-21T15:39:14;13.70;1.00
21811;DHT22;11067;48.788;9.208;2024-02-21T15:41:40;13.50;1.00
21811;DHT22;11067;48.788;9.208;2024-02-21T15:44:05;13.50;1.00
21811;DHT22;11067;48.788;9.208;2024-02-21T15:46:31;13.50;1.00
21811;DHT22;11067;48.788;9.208;2024-02-21T15:49:00;13.50;1.00
21811;DHT22;11067;48.788;9.208;2024-02-21T15:51:25;13.30;1.00
21811;DHT22;11067;48.788;9.208;2024-02-21T15:53:51;13.30;1.00
21811;DHT22;11067;48.788;9.208;2024-02-21T15:56:17;13.30;1.00